Time;durP1;ratioP1;P1;durP2;ratioP2;P2;SDS_P1;SDS_P2;PMS_P1;PMS_P2;Temp;Humidity;BMP_temperature;BMP_pressure;BME280_temperature;BME280_humidity;BME280_pressure;Samples;Min_cycle;Max_cycle;Signal;HPM_P1;HPM_P2
2021/09/21 00:02:11;;;;;;;10.38;6.68;;;10.20;99.90;;;;;;5027816;28;39060;-81
2021/09/21 00:04:37;;;;;;;11.65;7.63;;;10.20;99.90;;;;;;5031289;28;39032;-80
2021/09/21 00:07:03;;;;;;;10.90;7.32;;;10.20;99.90;;;;;;5027486;28;38290;-80
2021/09/21 00:09:30;;;;;;;9.57;7.47;;;10.20;99.90;;;;;;5027039;28;36101;-79
2021/09/21 00:11:56;;;;;;;8.23;6.85;;;10.20;99.90;;;;;;5028664;28;39631;-80
2021/09/21 00:14:22;;;;;;;9.20;7.28;;;10.10;99.90;;;;;;5027548;28;38446;-80
2021/09/21 00:16:48;;;;;;;9.13;7.13;;;10.20;99.90;;;;;;5028854;28;38045;-80
2021/09/21 00:19:15;;;;;;;7.75;6.32;;;10.10;99.90;;;;;;5028495;28;36786;-80
2021/09/21 00:21:41;;;;;;;8.07;6.75;;;10.10;99.90;;;;;;5031157;28;39948;-80
2021/09/21 00:24:07;;;;;;;6.60;5.85;;;10.10;99.90;;;;;;5030052;28;38930;-80
2021/09/21 00:26:33;;;;;;;8.77;7.00;;;10.10;99.90;;;;;;5028233;28;38035;-80
2021/09/21 00:29:00;;;;;;;10.65;7.28;;;10.10;99.90;;;;;;5027953;28;38167;-80
2021/09/21 00:31:37;;;;;;;7.45;6.00;;;10.00;99.90;;;;;;5027551;28;39264;-80
2021/09/21 00:34:08;;;;;;;7.20;6.40;;;10.00;99.90;;;;;;5028729;28;38540;-80
2021/09/21 00:36:40;;;;;;;9.73;6.20;;;10.00;99.90;;;;;;5029174;28;38174;-81
2021/09/21 00:39:09;;;;;;;9.45;7.53;;;10.00;99.90;;;;;;5031041;28;36083;-81
2021/09/21 00:41:38;;;;;;;9.73;7.05;;;10.00;99.90;;;;;;5026130;28;38378;-80
2021/09/21 00:44:05;;;;;;;11.07;7.22;;;9.90;99.90;;;;;;5028260;28;39834;-80
2021/09/21 00:46:31;;;;;;;8.88;6.35;;;9.90;99.90;;;;;;5026094;28;37626;-80
2021/09/21 00:48:58;;;;;;;10.38;6.57;;;9.90;99.90;;;;;;5029847;28;36082;-80
2021/09/21 00:51:24;;;;;;;10.27;7.10;;;9.80;99.90;;;;;;5027654;28;40744;-79
2021/09/21 00:53:53;;;;;;;10.40;7.03;;;9.80;99.90;;;;;;5036040;28;38350;-81
2021/09/21 00:56:19;;;;;;;7.78;6.20;;;9.80;99.90;;;;;;5030341;28;40355;-80
2021/09/21 00:58:45;;;;;;;7.75;5.78;;;9.80;99.90;;;;;;5028562;28;37402;-80
2021/09/21 01:01:11;;;;;;;7.30;5.95;;;9.80;99.90;;;;;;5027501;28;39557;-80
2021/09/21 01:03:38;;;;;;;8.15;6.28;;;9.80;99.90;;;;;;5030437;28;38290;-80
2021/09/21 01:06:04;;;;;;;8.25;6.70;;;9.80;99.90;;;;;;5026223;28;38343;-80
2021/09/21 01:08:31;;;;;;;9.05;6.63;;;9.80;99.90;;;;;;5028605;28;37850;-80
2021/09/21 01:10:57;;;;;;;9.85;6.15;;;9.80;99.90;;;;;;5029197;28;38855;-80
2021/09/21 01:13:23;;;;;;;6.70;5.85;;;9.70;99.90;;;;;;5030743;28;39005;-80
2021/09/21 01:15:49;;;;;;;9.18;5.75;;;9.70;99.90;;;;;;5026517;28;39125;-80
2021/09/21 01:18:15;;;;;;;7.65;5.40;;;9.70;99.90;;;;;;5042833;28;37482;-80
2021/09/21 01:20:41;;;;;;;7.35;5.07;;;9.70;99.90;;;;;;5031264;28;40859;-80
2021/09/21 01:23:07;;;;;;;7.88;5.80;;;9.60;99.90;;;;;;5033971;28;39343;-80
2021/09/21 01:25:33;;;;;;;7.82;5.97;;;9.60;99.90;;;;;;5035184;28;37927;-80
2021/09/21 01:28:00;;;;;;;8.90;6.65;;;9.60;99.90;;;;;;5034092;28;38926;-80
2021/09/21 01:30:27;;;;;;;6.28;4.88;;;9.60;99.90;;;;;;5031409;28;38856;-79
2021/09/21 01:32:53;;;;;;;8.10;5.70;;;9.60;99.90;;;;;;5031602;28;38694;-80
2021/09/21 01:35:19;;;;;;;7.70;5.13;;;9.60;99.90;;;;;;5031823;28;37978;-80
2021/09/21 01:37:51;;;;;;;5.70;4.80;;;9.60;99.90;;;;;;5028539;28;36916;-80
2021/09/21 01:40:17;;;;;;;6.72;5.55;;;9.50;99.90;;;;;;5028021;28;38418;-80
2021/09/21 01:42:49;;;;;;;6.03;5.35;;;9.50;99.90;;;;;;5028642;28;38446;-80
2021/09/21 01:45:17;;;;;;;10.53;5.97;;;9.50;99.90;;;;;;5028694;28;38017;-80
2021/09/21 01:47:48;;;;;;;7.28;5.40;;;9.50;99.90;;;;;;5028618;28;36941;-80
2021/09/21 01:52:53;;;;;;;7.05;5.25;;;9.50;99.90;;;;;;5032227;28;37906;-80
2021/09/21 02:00:46;;;;;;;6.05;5.45;;;9.40;99.90;;;;;;5034826;28;39228;-80
2021/09/21 02:03:12;;;;;;;6.63;5.05;;;9.30;99.90;;;;;;5030215;28;37986;-81
2021/09/21 02:05:39;;;;;;;7.18;5.53;;;9.30;99.90;;;;;;5031741;28;37638;-80
2021/09/21 02:08:05;;;;;;;7.82;5.38;;;9.30;99.90;;;;;;5028645;28;37133;-80
2021/09/21 02:10:31;;;;;;;7.82;5.82;;;9.30;99.90;;;;;;5029523;28;39204;-80
2021/09/21 02:12:57;;;;;;;10.02;5.68;;;9.30;99.90;;;;;;5031965;28;37370;-80
2021/09/21 02:15:23;;;;;;;8.38;5.95;;;9.30;99.90;;;;;;5031313;28;38259;-80
2021/09/21 02:17:49;;;;;;;8.15;5.25;;;9.30;99.90;;;;;;5031059;28;36372;-80
2021/09/21 02:20:16;;;;;;;6.53;4.70;;;9.30;99.90;;;;;;5028521;28;37712;-80
2021/09/21 02:22:42;;;;;;;6.90;5.55;;;9.30;99.90;;;;;;5028719;28;38308;-80
2021/09/21 02:25:08;;;;;;;7.97;5.95;;;9.30;99.90;;;;;;5031021;28;35212;-79
2021/09/21 02:27:34;;;;;;;7.20;5.47;;;9.30;99.90;;;;;;5031634;28;35674;-79
2021/09/21 02:30:03;;;;;;;9.02;5.78;;;9.30;99.90;;;;;;5028610;28;36626;-80
2021/09/21 02:32:29;;;;;;;6.57;5.57;;;9.30;99.90;;;;;;5025546;28;47609;-79
2021/09/21 02:34:55;;;;;;;10.43;6.80;;;9.30;99.90;;;;;;5029385;28;37205;-79
2021/09/21 02:37:21;;;;;;;7.75;6.15;;;9.30;99.90;;;;;;5028059;28;37008;-80
2021/09/21 02:39:47;;;;;;;6.55;5.28;;;9.30;99.90;;;;;;5032150;28;38771;-79
2021/09/21 02:42:13;;;;;;;5.90;5.28;;;9.30;99.90;;;;;;5030592;28;38422;-80
2021/09/21 02:44:39;;;;;;;6.65;4.97;;;9.30;99.90;;;;;;5028832;28;37785;-80
2021/09/21 02:47:05;;;;;;;6.10;5.40;;;9.20;99.90;;;;;;5029420;28;36497;-80
2021/09/21 02:49:32;;;;;;;6.80;5.72;;;9.20;99.90;;;;;;5026753;28;37355;-80
2021/09/21 02:51:58;;;;;;;8.57;6.00;;;9.20;99.90;;;;;;5026582;28;38181;-80
2021/09/21 02:54:24;;;;;;;10.95;5.65;;;9.10;99.90;;;;;;5028875;28;38473;-80
2021/09/21 02:56:51;;;;;;;6.10;5.50;;;9.10;99.90;;;;;;5025858;28;38659;-79
2021/09/21 02:59:17;;;;;;;9.47;5.87;;;9.10;99.90;;;;;;5027351;28;40683;-79
2021/09/21 03:01:43;;;;;;;7.40;5.60;;;9.10;99.90;;;;;;5028369;28;38222;-79
2021/09/21 03:04:18;;;;;;;8.03;6.07;;;9.10;99.90;;;;;;5029496;28;37087;-80
2021/09/21 03:06:49;;;;;;;7.80;5.40;;;9.00;99.90;;;;;;5030276;28;36143;-80
2021/09/21 03:10:21;;;;;;;6.67;5.00;;;9.00;99.90;;;;;;5031896;28;38460;-79
2021/09/21 03:17:28;;;;;;;9.87;6.30;;;8.90;99.90;;;;;;5037050;28;38543;-80
2021/09/21 03:19:57;;;;;;;9.30;5.82;;;8.90;99.90;;;;;;5030463;28;40475;-80
2021/09/21 03:22:23;;;;;;;5.57;4.95;;;8.90;99.90;;;;;;5034406;28;38042;-80
2021/09/21 03:24:50;;;;;;;6.23;5.40;;;8.90;99.90;;;;;;5035936;28;39043;-80
2021/09/21 03:27:17;;;;;;;8.20;5.37;;;8.80;99.90;;;;;;5035917;28;37682;-80
2021/09/21 03:29:43;;;;;;;7.47;5.60;;;8.80;99.90;;;;;;5029712;28;41904;-79
2021/09/21 03:32:09;;;;;;;5.40;4.80;;;8.80;99.90;;;;;;5030209;28;38827;-80
2021/09/21 03:34:37;;;;;;;7.03;4.93;;;8.80;99.90;;;;;;5029590;28;39738;-79
2021/09/21 03:37:08;;;;;;;6.13;4.67;;;8.80;99.90;;;;;;5028023;28;38073;-78
2021/09/21 03:39:35;;;;;;;7.07;5.77;;;8.80;99.90;;;;;;5028187;28;38748;-80
2021/09/21 03:42:02;;;;;;;8.40;5.43;;;8.70;99.90;;;;;;5028044;28;38900;-78
2021/09/21 03:44:28;;;;;;;7.80;5.80;;;8.70;99.90;;;;;;5031367;28;38364;-80
2021/09/21 03:46:55;;;;;;;5.83;5.23;;;8.70;99.90;;;;;;5031538;28;36729;-80
2021/09/21 03:49:22;;;;;;;6.20;5.03;;;8.70;99.90;;;;;;5027645;28;40580;-79
2021/09/21 03:51:48;;;;;;;6.50;4.87;;;8.60;99.90;;;;;;5029567;28;37499;-80
2021/09/21 03:54:14;;;;;;;7.73;5.53;;;8.60;99.90;;;;;;5034021;28;38111;-79
2021/09/21 03:56:41;;;;;;;7.67;5.73;;;8.60;99.90;;;;;;5037648;28;37356;-79
2021/09/21 03:59:08;;;;;;;7.57;5.83;;;8.60;99.90;;;;;;5029668;28;39102;-80
2021/09/21 04:01:35;;;;;;;6.40;5.13;;;8.60;99.90;;;;;;5027258;28;37774;-80
2021/09/21 04:04:01;;;;;;;7.47;6.20;;;8.60;99.90;;;;;;5038547;28;37748;-80
2021/09/21 04:06:28;;;;;;;7.53;4.53;;;8.60;99.90;;;;;;5032426;28;48760;-80
2021/09/21 04:08:54;;;;;;;12.33;6.40;;;8.50;99.90;;;;;;5032015;28;39899;-80
2021/09/21 04:11:21;;;;;;;7.57;6.10;;;8.50;99.90;;;;;;5030676;28;39019;-80
2021/09/21 04:13:49;;;;;;;9.37;6.20;;;8.50;99.90;;;;;;5029019;28;38920;-80
2021/09/21 04:16:15;;;;;;;8.33;6.70;;;8.50;99.90;;;;;;5025152;28;38776;-80
2021/09/21 04:18:42;;;;;;;7.37;5.67;;;8.50;99.90;;;;;;5030624;28;38510;-80
2021/09/21 04:21:08;;;;;;;6.40;5.40;;;8.40;99.90;;;;;;5026847;28;38275;-80
2021/09/21 04:23:34;;;;;;;6.60;5.33;;;8.40;99.90;;;;;;5031445;28;36871;-80
2021/09/21 04:26:00;;;;;;;8.33;6.20;;;8.40;99.90;;;;;;5025185;28;38947;-80
2021/09/21 04:28:26;;;;;;;7.93;6.17;;;8.40;99.90;;;;;;5030700;28;39117;-80
2021/09/21 04:30:53;;;;;;;6.77;5.77;;;8.40;99.90;;;;;;5043911;28;40536;-80
2021/09/21 04:33:20;;;;;;;7.80;6.37;;;8.40;99.90;;;;;;5028295;28;39634;-80
2021/09/21 04:35:46;;;;;;;6.70;5.30;;;8.40;99.90;;;;;;5029050;28;38204;-80
2021/09/21 04:38:12;;;;;;;10.43;6.97;;;8.40;99.90;;;;;;5030030;28;39656;-80
2021/09/21 04:40:39;;;;;;;9.73;6.50;;;8.40;99.90;;;;;;5028671;28;38139;-79
2021/09/21 04:43:06;;;;;;;8.00;5.67;;;8.40;99.90;;;;;;5029885;28;37238;-79
2021/09/21 04:45:36;;;;;;;8.67;6.03;;;8.40;99.90;;;;;;5028193;28;37537;-80
2021/09/21 04:48:03;;;;;;;7.77;5.87;;;8.40;99.90;;;;;;5028200;28;38704;-80
2021/09/21 04:50:30;;;;;;;8.53;6.10;;;8.30;99.90;;;;;;5026705;28;47375;-80
2021/09/21 04:52:57;;;;;;;7.37;5.63;;;8.30;99.90;;;;;;5028123;28;39126;-79
2021/09/21 04:55:23;;;;;;;8.03;6.30;;;8.30;99.90;;;;;;5026440;28;36950;-79
2021/09/21 04:57:49;;;;;;;7.73;5.40;;;8.30;99.90;;;;;;5024499;28;38308;-80
2021/09/21 05:00:17;;;;;;;11.00;6.37;;;8.30;99.90;;;;;;5026222;28;38781;-79
2021/09/21 05:02:44;;;;;;;8.80;6.67;;;8.30;99.90;;;;;;5026332;28;39936;-79
2021/09/21 05:05:10;;;;;;;8.17;5.83;;;8.30;99.90;;;;;;5026611;28;37901;-79
2021/09/21 05:07:36;;;;;;;6.67;5.40;;;8.30;99.90;;;;;;5025728;28;39464;-79
2021/09/21 05:10:03;;;;;;;8.37;6.23;;;8.20;99.90;;;;;;5026917;28;37136;-78
2021/09/21 05:12:29;;;;;;;8.93;7.03;;;8.20;99.90;;;;;;5026048;28;47830;-79
2021/09/21 05:14:55;;;;;;;10.10;5.90;;;8.20;99.90;;;;;;5034761;28;37677;-80
2021/09/21 05:17:21;;;;;;;10.53;6.33;;;8.20;99.90;;;;;;5030435;28;38705;-79
2021/09/21 05:19:47;;;;;;;7.07;5.63;;;8.20;99.90;;;;;;5025594;28;39152;-79
2021/09/21 05:22:14;;;;;;;6.53;5.70;;;8.20;99.90;;;;;;5027000;28;38051;-79
2021/09/21 05:24:40;;;;;;;7.80;6.33;;;8.20;99.90;;;;;;5037334;28;36667;-81
2021/09/21 05:27:06;;;;;;;6.70;5.30;;;8.20;99.90;;;;;;5040961;28;39303;-80
2021/09/21 05:29:32;;;;;;;11.00;6.87;;;8.20;99.90;;;;;;5040095;28;39133;-80
2021/09/21 05:31:59;;;;;;;9.10;6.73;;;8.20;99.90;;;;;;5033771;28;35901;-80
2021/09/21 05:34:25;;;;;;;7.63;6.33;;;8.20;99.90;;;;;;5036094;28;37699;-81
2021/09/21 05:36:51;;;;;;;10.33;6.97;;;8.20;99.90;;;;;;5051842;28;38512;-81
2021/09/21 05:39:17;;;;;;;9.37;6.07;;;8.20;99.90;;;;;;5033885;28;39317;-80
2021/09/21 05:41:44;;;;;;;13.53;6.43;;;8.20;99.90;;;;;;5038607;28;38645;-80
2021/09/21 05:44:10;;;;;;;10.57;6.77;;;8.20;99.90;;;;;;5037233;28;38712;-80
2021/09/21 05:46:36;;;;;;;12.63;6.67;;;8.20;99.90;;;;;;5033300;28;40968;-81
2021/09/21 05:49:03;;;;;;;10.53;7.27;;;8.30;99.90;;;;;;5044243;28;36808;-80
2021/09/21 05:51:30;;;;;;;7.87;6.17;;;8.30;99.90;;;;;;5046495;28;38807;-81
2021/09/21 05:53:57;;;;;;;9.33;7.13;;;8.30;99.90;;;;;;5042947;28;37847;-81
2021/09/21 05:56:23;;;;;;;9.00;6.70;;;8.50;99.90;;;;;;5044165;28;38577;-80
2021/09/21 05:58:50;;;;;;;11.20;7.83;;;8.60;99.90;;;;;;5048601;28;38954;-82
2021/09/21 06:01:16;;;;;;;11.90;7.57;;;8.60;99.90;;;;;;5052578;28;37915;-81
2021/09/21 06:03:42;;;;;;;9.60;6.67;;;8.60;99.90;;;;;;5044592;28;37422;-81
2021/09/21 06:06:08;;;;;;;9.33;7.17;;;8.70;99.90;;;;;;5038659;28;37732;-82
2021/09/21 06:08:34;;;;;;;13.70;6.80;;;8.70;99.90;;;;;;5053768;28;38458;-82
2021/09/21 06:11:00;;;;;;;11.43;6.97;;;8.80;99.90;;;;;;5054779;28;38303;-81
2021/09/21 06:13:26;;;;;;;7.63;6.50;;;8.80;99.90;;;;;;5050514;28;35949;-82
2021/09/21 06:15:52;;;;;;;10.30;7.18;;;8.80;99.90;;;;;;5047352;28;37548;-81
2021/09/21 06:18:19;;;;;;;15.40;7.37;;;8.90;99.90;;;;;;5057843;28;39011;-83
2021/09/21 06:20:45;;;;;;;9.40;7.53;;;8.90;99.90;;;;;;5063582;28;37777;-83
2021/09/21 06:23:12;;;;;;;11.32;7.07;;;9.00;99.90;;;;;;5055879;28;37889;-82
2021/09/21 06:25:39;;;;;;;11.07;7.13;;;9.10;99.90;;;;;;5050789;28;39966;-83
2021/09/21 06:28:05;;;;;;;11.47;6.63;;;9.10;99.90;;;;;;5047227;28;38065;-82
2021/09/21 06:30:32;;;;;;;12.60;7.82;;;9.10;99.90;;;;;;5053945;28;38215;-82
2021/09/21 06:32:58;;;;;;;11.73;7.30;;;9.20;99.90;;;;;;5046903;28;37183;-82
2021/09/21 06:35:25;;;;;;;10.05;7.03;;;9.20;99.90;;;;;;5044488;28;37476;-81
2021/09/21 06:37:51;;;;;;;11.02;7.45;;;9.30;99.90;;;;;;5049923;28;36956;-82
2021/09/21 06:40:17;;;;;;;15.70;7.72;;;9.40;99.90;;;;;;5045408;28;37110;-82
2021/09/21 06:42:44;;;;;;;12.38;7.40;;;9.40;99.90;;;;;;5043765;28;37566;-83
2021/09/21 06:45:16;;;;;;;10.93;7.95;;;9.50;99.90;;;;;;5046163;28;37244;-82
2021/09/21 06:47:43;;;;;;;11.32;7.00;;;9.50;99.90;;;;;;5038079;28;39410;-82
2021/09/21 06:50:11;;;;;;;13.38;8.32;;;9.60;99.90;;;;;;5051713;28;38251;-82
2021/09/21 06:52:37;;;;;;;10.77;8.05;;;9.70;99.90;;;;;;5042102;28;38038;-82
2021/09/21 06:55:04;;;;;;;14.60;8.98;;;9.80;99.90;;;;;;5041477;28;40529;-81
2021/09/21 06:57:30;;;;;;;10.85;8.27;;;9.90;99.90;;;;;;5043599;28;47311;-81
2021/09/21 06:59:57;;;;;;;12.35;8.65;;;10.00;99.90;;;;;;5045209;28;38453;-81
2021/09/21 07:02:26;;;;;;;11.02;7.03;;;10.10;99.90;;;;;;5035833;28;38010;-82
2021/09/21 07:04:52;;;;;;;12.10;8.02;;;10.20;99.90;;;;;;5047747;28;39967;-81
2021/09/21 07:07:18;;;;;;;14.23;8.77;;;10.30;99.90;;;;;;5039079;28;39180;-80
2021/09/21 07:09:44;;;;;;;12.05;8.02;;;10.40;99.90;;;;;;5036830;28;37091;-80
2021/09/21 07:12:11;;;;;;;12.48;8.93;;;10.50;99.90;;;;;;5034686;28;37722;-79
2021/09/21 07:14:37;;;;;;;10.20;8.27;;;10.60;99.90;;;;;;5043566;28;39349;-80
2021/09/21 07:17:04;;;;;;;11.98;8.52;;;10.70;99.90;;;;;;5046350;28;38535;-80
2021/09/21 07:19:30;;;;;;;12.20;8.75;;;10.90;99.90;;;;;;5035478;28;36753;-80
2021/09/21 07:21:56;;;;;;;14.05;8.95;;;11.00;99.90;;;;;;5028589;28;37207;-81
2021/09/21 07:24:22;;;;;;;12.52;8.18;;;11.20;99.90;;;;;;5045285;28;38543;-81
2021/09/21 07:26:50;;;;;;;12.35;7.68;;;11.30;99.90;;;;;;5057727;28;40316;-81
2021/09/21 07:29:19;;;;;;;10.73;7.60;;;11.40;99.90;;;;;;5050620;28;38253;-80
2021/09/21 07:31:45;;;;;;;13.70;8.35;;;11.60;99.90;;;;;;5033436;28;37751;-80
2021/09/21 07:34:11;;;;;;;8.35;7.25;;;11.70;99.90;;;;;;5044145;28;39333;-81
2021/09/21 07:36:37;;;;;;;10.32;7.30;;;11.90;99.90;;;;;;5036747;28;38086;-81
2021/09/21 07:39:04;;;;;;;9.98;6.57;;;12.00;99.90;;;;;;5057793;28;38573;-81
2021/09/21 07:41:30;;;;;;;13.75;7.18;;;12.10;99.90;;;;;;5054235;28;37824;-81
2021/09/21 07:43:56;;;;;;;9.07;6.88;;;12.10;99.90;;;;;;5052173;28;37491;-80
2021/09/21 07:46:22;;;;;;;8.18;6.65;;;12.20;99.90;;;;;;5043824;28;38537;-81
2021/09/21 07:48:48;;;;;;;10.63;6.30;;;12.20;99.90;;;;;;5038531;28;38030;-81
2021/09/21 07:51:14;;;;;;;8.88;6.60;;;12.30;99.90;;;;;;5050399;28;36803;-81
2021/09/21 07:53:41;;;;;;;11.02;6.32;;;12.30;99.90;;;;;;5045784;28;41060;-79
2021/09/21 07:56:07;;;;;;;12.48;6.40;;;12.30;99.90;;;;;;5052293;28;38473;-81
2021/09/21 07:58:33;;;;;;;7.97;5.50;;;12.40;99.90;;;;;;5046997;28;38899;-81
2021/09/21 08:00:59;;;;;;;7.05;5.18;;;12.60;99.90;;;;;;5039841;28;37703;-80
2021/09/21 08:03:25;;;;;;;8.68;5.95;;;12.70;99.90;;;;;;5027780;28;40297;-81
2021/09/21 08:05:51;;;;;;;8.63;5.00;;;12.80;99.90;;;;;;5041377;28;39190;-80
2021/09/21 08:08:17;;;;;;;8.68;5.53;;;12.90;99.90;;;;;;5048266;28;38295;-78
2021/09/21 08:10:44;;;;;;;7.25;5.53;;;13.00;99.90;;;;;;5052781;28;38156;-80
2021/09/21 08:13:11;;;;;;;7.72;5.93;;;13.10;99.90;;;;;;5063921;28;37456;-79
2021/09/21 08:15:37;;;;;;;5.53;4.70;;;13.10;99.90;;;;;;5044134;28;37047;-79
2021/09/21 08:18:07;;;;;;;5.47;4.05;;;13.20;99.90;;;;;;5051631;28;39731;-79
2021/09/21 08:20:33;;;;;;;9.15;3.83;;;13.40;99.90;;;;;;5041024;28;48484;-79
2021/09/21 08:23:00;;;;;;;7.07;4.15;;;13.60;99.90;;;;;;5047239;28;38534;-80
2021/09/21 08:25:26;;;;;;;5.18;4.28;;;13.80;99.90;;;;;;5028689;28;38212;-79
2021/09/21 08:27:52;;;;;;;4.30;3.30;;;13.90;99.90;;;;;;5043451;28;36905;-80
2021/09/21 08:30:19;;;;;;;6.10;3.72;;;14.00;99.90;;;;;;5039790;28;38082;-80
2021/09/21 08:32:46;;;;;;;6.25;3.35;;;14.10;99.90;;;;;;5042656;28;39973;-80
2021/09/21 08:35:12;;;;;;;2.97;2.55;;;14.30;99.90;;;;;;5053343;28;37802;-79
2021/09/21 08:37:39;;;;;;;6.85;2.25;;;14.30;99.90;;;;;;5055047;28;38058;-80
2021/09/21 08:40:06;;;;;;;5.30;3.42;;;14.40;99.90;;;;;;5057218;28;39126;-79
2021/09/21 08:42:32;;;;;;;7.45;3.97;;;14.60;99.90;;;;;;5064169;28;39501;-80
2021/09/21 08:44:58;;;;;;;8.20;3.03;;;14.70;99.90;;;;;;5047073;28;39262;-79
2021/09/21 08:47:25;;;;;;;3.88;2.42;;;14.80;99.90;;;;;;5045164;28;37000;-80
2021/09/21 08:49:51;;;;;;;4.65;2.70;;;15.00;99.90;;;;;;5048213;28;38348;-80
2021/09/21 08:52:17;;;;;;;4.57;2.88;;;15.10;99.90;;;;;;5049782;28;39401;-80
2021/09/21 08:54:43;;;;;;;4.20;3.00;;;15.30;99.90;;;;;;5046119;28;39729;-83
2021/09/21 08:57:10;;;;;;;3.92;2.85;;;15.50;99.90;;;;;;5045605;28;38773;-82
2021/09/21 08:59:37;;;;;;;6.97;2.92;;;15.40;99.90;;;;;;5044605;28;36982;-81
2021/09/21 09:02:11;;;;;;;3.63;2.20;;;15.30;99.90;;;;;;5049422;28;39569;-81
2021/09/21 09:04:38;;;;;;;7.15;2.40;;;15.40;99.90;;;;;;5053012;28;38592;-81
2021/09/21 09:07:05;;;;;;;3.63;2.58;;;15.60;99.90;;;;;;5045128;28;39245;-83
2021/09/21 09:09:35;;;;;;;3.67;2.47;;;15.70;99.90;;;;;;5049695;28;37826;-82
2021/09/21 09:12:04;;;;;;;3.78;2.55;;;15.70;99.90;;;;;;5049551;28;38927;-81
2021/09/21 09:14:33;;;;;;;4.20;3.40;;;15.90;99.90;;;;;;5048299;28;47437;-82
2021/09/21 09:17:01;;;;;;;3.60;2.75;;;16.10;99.90;;;;;;5048230;28;38381;-82
2021/09/21 09:19:38;;;;;;;3.80;3.22;;;16.10;99.90;;;;;;5050994;28;47196;-82
2021/09/21 09:22:23;;;;;;;7.05;2.92;;;16.30;99.90;;;;;;5048841;28;39906;-83
2021/09/21 09:24:58;;;;;;;3.65;2.08;;;16.40;99.90;;;;;;5034996;28;39225;-83
2021/09/21 09:27:47;;;;;;;2.22;2.00;;;16.50;99.90;;;;;;5051208;28;38426;-82
2021/09/21 09:30:20;;;;;;;2.90;1.80;;;16.60;99.90;;;;;;5048647;28;37970;-82
2021/09/21 09:32:51;;;;;;;2.83;1.83;;;16.70;99.90;;;;;;5049235;28;40750;-82
2021/09/21 09:35:35;;;;;;;2.88;1.90;;;16.70;99.90;;;;;;5052817;28;38229;-83
2021/09/21 09:38:06;;;;;;;2.00;1.80;;;16.60;99.90;;;;;;5051734;28;38969;-83
2021/09/21 09:40:38;;;;;;;2.90;1.90;;;16.60;99.90;;;;;;5038460;28;48990;-82
2021/09/21 09:43:04;;;;;;;3.15;1.88;;;16.60;99.90;;;;;;5036305;28;39558;-83
2021/09/21 09:45:33;;;;;;;3.08;1.95;;;16.70;99.90;;;;;;5031346;28;38832;-82
2021/09/21 09:48:00;;;;;;;2.22;1.70;;;16.90;99.90;;;;;;5030808;28;37670;-82
2021/09/21 09:50:28;;;;;;;3.67;2.08;;;16.90;99.90;;;;;;5034290;28;37755;-83
2021/09/21 09:53:09;;;;;;;1.90;1.35;;;16.80;99.90;;;;;;5049440;28;40103;-82
2021/09/21 09:55:36;;;;;;;3.08;1.80;;;16.80;99.90;;;;;;5051548;28;48600;-82
2021/09/21 09:58:04;;;;;;;2.67;1.70;;;17.30;99.90;;;;;;5047486;28;39647;-81
2021/09/21 10:00:31;;;;;;;2.05;1.27;;;17.60;99.90;;;;;;5037832;28;37724;-83
2021/09/21 10:02:58;;;;;;;2.42;1.80;;;17.50;99.90;;;;;;5032224;28;39855;-83
2021/09/21 10:05:24;;;;;;;4.95;1.33;;;17.70;99.90;;;;;;5039060;28;38662;-82
2021/09/21 10:07:50;;;;;;;1.88;1.30;;;17.80;99.90;;;;;;5040441;28;38691;-83
2021/09/21 10:10:17;;;;;;;1.85;1.60;;;17.90;99.90;;;;;;5049770;28;37889;-82
2021/09/21 10:12:44;;;;;;;4.35;2.28;;;18.00;99.90;;;;;;5059796;28;38901;-83
2021/09/21 10:15:11;;;;;;;1.20;1.10;;;18.10;99.90;;;;;;5060937;28;38999;-81
2021/09/21 10:17:53;;;;;;;2.78;1.60;;;18.40;99.90;;;;;;5057121;28;37329;-80
2021/09/21 10:20:20;;;;;;;;;;;18.30;99.90;;;;;;5068254;28;37609;-83
2021/09/21 10:22:52;;;;;;;3.95;1.50;;;18.10;99.90;;;;;;5049576;28;39022;-83
2021/09/21 10:25:29;;;;;;;1.85;1.30;;;18.20;99.90;;;;;;5040093;28;38905;-80
2021/09/21 10:27:56;;;;;;;1.80;1.15;;;18.50;99.90;;;;;;5048488;28;38902;-81
2021/09/21 10:30:29;;;;;;;2.47;1.30;;;18.70;99.90;;;;;;5045816;28;38007;-80
2021/09/21 10:32:57;;;;;;;1.95;1.40;;;19.00;99.90;;;;;;5046481;28;39014;-81
2021/09/21 10:35:30;;;;;;;2.38;1.20;;;18.90;99.90;;;;;;5043516;28;38931;-81
2021/09/21 10:38:00;;;;;;;2.30;1.40;;;18.90;99.90;;;;;;5047297;28;38639;-81
2021/09/21 10:40:37;;;;;;;2.60;1.30;;;19.00;99.90;;;;;;5044195;28;37587;-81
2021/09/21 10:43:19;;;;;;;2.47;0.90;;;19.10;99.90;;;;;;5034743;28;39789;-81
2021/09/21 10:45:45;;;;;;;3.63;1.25;;;19.00;99.90;;;;;;5044079;28;37985;-81
2021/09/21 10:48:19;;;;;;;0.73;0.73;;;19.00;99.90;;;;;;5060808;28;37326;-81
2021/09/21 10:50:54;;;;;;;2.88;1.17;;;19.20;99.90;;;;;;5063719;28;39049;-81
2021/09/21 10:53:22;;;;;;;1.77;1.00;;;19.40;99.90;;;;;;5059636;28;39811;-81
2021/09/21 10:56:02;;;;;;;1.10;0.98;;;19.60;99.90;;;;;;5054257;28;38555;-81
2021/09/21 10:58:28;;;;;;;1.30;0.98;;;19.70;99.90;;;;;;5048466;28;48238;-81
2021/09/21 11:00:54;;;;;;;1.50;1.20;;;19.80;99.90;;;;;;5055015;28;37181;-81
2021/09/21 11:03:26;;;;;;;2.00;1.00;;;20.00;99.90;;;;;;5056083;28;39917;-81
2021/09/21 11:05:56;;;;;;;;;;;20.00;99.90;;;;;;5060837;28;40086;-81
2021/09/21 11:08:31;;;;;;;1.10;0.85;;;20.00;99.90;;;;;;5048239;28;38931;-81
2021/09/21 11:11:01;;;;;;;1.58;0.93;;;20.30;99.90;;;;;;5049695;28;37755;-81
2021/09/21 11:13:36;;;;;;;1.17;0.90;;;20.70;99.90;;;;;;5051130;28;46837;-81
2021/09/21 11:16:08;;;;;;;0.70;0.68;;;20.90;99.90;;;;;;5046148;28;38179;-81
2021/09/21 11:18:36;;;;;;;1.10;0.80;;;20.60;99.90;;;;;;5080517;28;39117;-82
2021/09/21 11:21:07;;;;;;;1.08;0.80;;;20.80;99.90;;;;;;5067454;28;37022;-81
2021/09/21 11:23:36;;;;;;;0.98;0.70;;;20.80;99.90;;;;;;5052187;28;38058;-81
2021/09/21 11:26:05;;;;;;;1.73;0.77;;;20.80;99.90;;;;;;5038297;28;39105;-81
2021/09/21 11:28:33;;;;;;;0.70;0.70;;;20.50;99.90;;;;;;5041906;28;38377;-82
2021/09/21 11:31:01;;;;;;;0.82;0.70;;;20.30;99.90;;;;;;5036968;28;37924;-82
2021/09/21 11:33:29;;;;;;;1.17;0.70;;;19.90;99.90;;;;;;5052908;28;48222;-81
2021/09/21 11:35:58;;;;;;;0.70;0.47;;;20.20;99.90;;;;;;5056634;28;38105;-81
2021/09/21 11:38:28;;;;;;;1.15;0.85;;;20.50;99.90;;;;;;5049966;28;38430;-81
2021/09/21 11:40:55;;;;;;;2.88;1.13;;;20.30;99.90;;;;;;5057195;28;37644;-81
2021/09/21 11:43:22;;;;;;;1.42;1.10;;;20.20;99.90;;;;;;5071492;28;39340;-81
2021/09/21 11:45:50;;;;;;;1.58;1.13;;;19.60;99.90;;;;;;5055738;28;38930;-81
2021/09/21 11:48:17;;;;;;;0.95;0.90;;;19.90;99.90;;;;;;5049204;28;39008;-81
2021/09/21 11:50:44;;;;;;;1.35;0.82;;;20.20;99.90;;;;;;5049984;28;37450;-81
2021/09/21 11:53:13;;;;;;;1.00;0.80;;;20.30;99.90;;;;;;5049691;28;37921;-81
2021/09/21 11:55:42;;;;;;;1.08;0.73;;;20.10;99.90;;;;;;5058469;28;38478;-82
2021/09/21 11:58:12;;;;;;;1.38;0.80;;;20.10;99.90;;;;;;5045203;28;37877;-81
2021/09/21 12:00:39;;;;;;;1.67;0.98;;;20.50;99.90;;;;;;5038840;28;37958;-81
2021/09/21 12:03:18;;;;;;;1.42;0.90;;;20.40;99.90;;;;;;5064423;28;38873;-82
2021/09/21 12:05:47;;;;;;;1.40;0.82;;;20.60;99.90;;;;;;5051646;28;38019;-82
2021/09/21 12:08:25;;;;;;;1.40;0.90;;;20.70;99.90;;;;;;5048620;28;38775;-81
2021/09/21 12:10:56;;;;;;;1.20;1.10;;;20.90;99.90;;;;;;5048129;28;37768;-81
2021/09/21 12:13:25;;;;;;;1.07;0.87;;;20.70;99.90;;;;;;5069771;28;39740;-81
2021/09/21 12:15:54;;;;;;;3.17;1.30;;;20.60;99.90;;;;;;5049455;28;38574;-81
2021/09/21 12:18:23;;;;;;;2.28;0.90;;;20.10;99.90;;;;;;5055559;28;39601;-82
2021/09/21 12:20:54;;;;;;;2.95;1.08;;;19.80;99.90;;;;;;5055603;28;38367;-81
2021/09/21 12:23:27;;;;;;;1.60;1.17;;;19.90;99.90;;;;;;5054380;28;39939;-81
2021/09/21 12:25:55;;;;;;;1.92;1.17;;;19.80;99.90;;;;;;5055780;28;39191;-82
2021/09/21 12:28:30;;;;;;;2.53;1.20;;;19.70;99.90;;;;;;5058602;28;39382;-82
2021/09/21 12:31:09;;;;;;;2.38;0.95;;;19.90;99.90;;;;;;5056563;28;37842;-81
2021/09/21 12:33:41;;;;;;;1.00;0.80;;;20.00;99.90;;;;;;5051357;28;45530;-81
2021/09/21 12:36:19;;;;;;;3.85;1.25;;;20.40;99.90;;;;;;5038030;28;39320;-81
2021/09/21 12:39:02;;;;;;;2.33;1.27;;;20.60;99.90;;;;;;5039488;28;37993;-81
2021/09/21 12:41:41;;;;;;;1.83;0.90;;;20.30;99.90;;;;;;5043559;28;48935;-81
2021/09/21 12:44:13;;;;;;;1.20;1.10;;;20.50;99.90;;;;;;5043062;28;38748;-80
2021/09/21 12:46:41;;;;;;;;;;;20.60;99.90;;;;;;5037466;28;38741;-82
2021/09/21 12:49:10;;;;;;;1.63;1.20;;;20.70;99.90;;;;;;5051357;28;36782;-80
2021/09/21 12:51:47;;;;;;;1.05;0.95;;;20.30;99.90;;;;;;5058974;28;37816;-82
2021/09/21 12:54:18;;;;;;;2.63;1.08;;;20.10;99.90;;;;;;5048250;28;39199;-79
2021/09/21 12:56:49;;;;;;;2.03;1.00;;;20.10;99.90;;;;;;5032638;28;38724;-80
2021/09/21 12:59:19;;;;;;;1.85;1.08;;;20.30;99.90;;;;;;5036443;28;38647;-79
2021/09/21 13:01:49;;;;;;;2.25;1.05;;;20.60;99.90;;;;;;5041558;28;37463;-79
2021/09/21 13:04:15;;;;;;;1.50;0.80;;;21.00;99.90;;;;;;5037347;28;39466;-80
2021/09/21 13:06:44;;;;;;;3.67;0.90;;;21.20;99.90;;;;;;5045148;28;38424;-82
2021/09/21 13:09:10;;;;;;;2.83;1.05;;;21.20;99.90;;;;;;5040089;28;37122;-81